createdAt,value
2023-01-19T00:00:52.467Z,3.97
2023-01-19T00:03:19.146Z,4.65
2023-01-19T00:05:45.802Z,4.20
2023-01-19T00:08:15.707Z,4.13
2023-01-19T00:10:45.114Z,4.47
2023-01-19T00:13:12.327Z,4.07
2023-01-19T00:15:39.252Z,4.30
2023-01-19T00:18:06.658Z,4.65
2023-01-19T00:20:35.557Z,4.53
2023-01-19T00:23:03.438Z,4.20
2023-01-19T00:25:30.157Z,4.82
2023-01-19T00:27:57.185Z,4.05
2023-01-19T00:30:30.504Z,4.55
2023-01-19T00:32:57.237Z,4.68
2023-01-19T00:35:23.936Z,4.82
2023-01-19T00:37:50.675Z,4.70
2023-01-19T00:40:18.056Z,4.40
2023-01-19T00:42:44.781Z,4.43
2023-01-19T00:45:15.778Z,4.53
2023-01-19T00:47:42.531Z,4.43
2023-01-19T00:50:13.719Z,5.60
2023-01-19T00:52:41.714Z,5.10
2023-01-19T00:55:11.247Z,4.93
2023-01-19T00:57:39.442Z,4.15
2023-01-19T01:00:11.567Z,4.20
2023-01-19T01:02:41.858Z,4.07
2023-01-19T01:05:11.747Z,4.40
2023-01-19T01:07:41.157Z,4.65
2023-01-19T01:10:14.680Z,4.45
2023-01-19T01:12:55.548Z,4.63
2023-01-19T01:15:29.771Z,3.80
2023-01-19T01:17:56.483Z,4.00
2023-01-19T01:20:28.524Z,4.30
2023-01-19T01:22:56.896Z,3.85
2023-01-19T01:25:26.923Z,3.90
2023-01-19T01:27:54.641Z,3.55
2023-01-19T01:30:22.080Z,4.13
2023-01-19T01:32:48.996Z,3.63
2023-01-19T01:35:16.658Z,4.13
2023-01-19T01:37:43.351Z,3.80
2023-01-19T01:40:14.106Z,3.92
2023-01-19T01:42:42.495Z,3.80
2023-01-19T01:45:38.170Z,3.60
2023-01-19T01:48:22.231Z,3.80
2023-01-19T01:51:13.662Z,3.67
2023-01-19T01:53:41.765Z,3.70
2023-01-19T01:56:14.778Z,3.85
2023-01-19T01:58:41.789Z,3.92
2023-01-19T02:01:29.238Z,4.00
2023-01-19T02:03:57.910Z,4.63
2023-01-19T02:06:25.309Z,4.18
2023-01-19T02:09:23.553Z,4.10
2023-01-19T02:12:09.914Z,4.68
2023-01-19T02:14:39.443Z,5.30
2023-01-19T02:17:06.845Z,5.20
2023-01-19T02:19:41.322Z,5.45
2023-01-19T02:22:30.282Z,5.38
2023-01-19T02:24:57.237Z,5.18
2023-01-19T02:27:23.869Z,6.07
2023-01-19T02:29:50.503Z,6.00
2023-01-19T02:32:17.363Z,5.45
2023-01-19T02:34:43.971Z,5.32
2023-01-19T02:37:13.588Z,4.95
2023-01-19T02:39:56.798Z,4.53
2023-01-19T02:42:32.322Z,4.72
2023-01-19T02:44:59.779Z,4.80
2023-01-19T02:47:26.509Z,4.88
2023-01-19T02:50:00.493Z,4.93
2023-01-19T02:52:28.153Z,5.00
2023-01-19T02:55:19.270Z,5.15
2023-01-19T02:58:15.923Z,5.13
2023-01-19T03:01:04.636Z,4.93
2023-01-19T03:03:42.404Z,5.00
2023-01-19T03:06:24.337Z,5.20
2023-01-19T03:09:33.825Z,4.75
2023-01-19T03:12:14.657Z,4.72
2023-01-19T03:14:47.971Z,4.55
2023-01-19T03:17:17.914Z,4.28
2023-01-19T03:19:48.602Z,4.68
2023-01-19T03:22:29.246Z,4.70
2023-01-19T03:25:00.536Z,4.40
2023-01-19T03:27:35.537Z,4.35
2023-01-19T03:30:14.922Z,4.60
2023-01-19T03:33:04.966Z,5.00
2023-01-19T03:35:35.716Z,4.63
2023-01-19T03:38:12.176Z,4.15
2023-01-19T03:40:39.631Z,4.47
2023-01-19T03:43:06.969Z,4.65
2023-01-19T03:45:37.038Z,4.07
2023-01-19T03:48:05.037Z,4.97
2023-01-19T03:50:33.983Z,4.82
2023-01-19T03:53:12.591Z,4.45
2023-01-19T03:55:42.768Z,3.88
2023-01-19T03:58:10.054Z,4.38
2023-01-19T04:00:37.282Z,4.28
2023-01-19T04:03:05.726Z,4.78
2023-01-19T04:05:33.003Z,4.70
2023-01-19T04:08:00.115Z,4.32
2023-01-19T04:10:26.740Z,5.03
2023-01-19T04:13:01.454Z,5.20
2023-01-19T04:15:30.516Z,4.53
2023-01-19T04:17:58.811Z,4.93
2023-01-19T04:20:27.967Z,5.25
2023-01-19T04:22:59.502Z,4.35
2023-01-19T04:25:27.600Z,4.47
2023-01-19T04:27:55.132Z,4.90
2023-01-19T04:30:22.487Z,4.93
2023-01-19T04:32:49.525Z,5.70
2023-01-19T04:35:16.934Z,5.20
2023-01-19T04:37:44.854Z,5.13
2023-01-19T04:40:12.073Z,4.97
2023-01-19T04:42:38.948Z,5.30
2023-01-19T04:45:06.102Z,5.03
2023-01-19T04:47:32.707Z,4.88
2023-01-19T04:49:59.275Z,4.88
2023-01-19T04:52:34.760Z,4.95
2023-01-19T04:55:03.922Z,4.32
2023-01-19T04:57:31.108Z,6.03
2023-01-19T04:59:58.594Z,4.75
2023-01-19T05:02:25.857Z,5.53
2023-01-19T05:04:53.147Z,5.88
2023-01-19T05:07:19.852Z,4.38
2023-01-19T05:09:46.444Z,4.82
2023-01-19T05:12:13.029Z,4.90
2023-01-19T05:14:39.631Z,4.32
2023-01-19T05:17:06.376Z,4.28
2023-01-19T05:19:32.970Z,4.43
2023-01-19T05:21:59.596Z,4.65
2023-01-19T05:24:26.227Z,4.55
2023-01-19T05:26:52.809Z,4.05
2023-01-19T05:29:19.432Z,5.00
2023-01-19T05:31:46.225Z,4.60
2023-01-19T05:34:15.178Z,5.32
2023-01-19T05:36:42.659Z,4.68
2023-01-19T05:39:09.685Z,5.10
2023-01-19T05:41:39.291Z,5.05
2023-01-19T05:44:05.878Z,5.07
2023-01-19T05:46:34.591Z,5.03
2023-01-19T05:49:04.076Z,5.03
2023-01-19T05:51:35.066Z,5.40
2023-01-19T05:54:01.932Z,5.03
2023-01-19T05:56:28.973Z,5.60
2023-01-19T05:58:55.625Z,4.65
2023-01-19T06:01:22.432Z,5.20
2023-01-19T06:03:49.052Z,4.85
2023-01-19T06:06:15.791Z,5.38
2023-01-19T06:08:42.499Z,5.40
2023-01-19T06:11:09.191Z,5.30
2023-01-19T06:13:35.919Z,5.75
2023-01-19T06:16:05.892Z,5.72
2023-01-19T06:18:32.859Z,5.85
2023-01-19T06:21:03.188Z,5.50
2023-01-19T06:23:32.713Z,5.55
2023-01-19T06:25:59.525Z,5.82
2023-01-19T06:28:32.717Z,6.65
2023-01-19T06:30:59.348Z,5.70
2023-01-19T06:33:28.615Z,5.57
2023-01-19T06:35:55.868Z,7.25
2023-01-19T06:38:23.046Z,6.15
2023-01-19T06:40:58.737Z,6.10
2023-01-19T06:43:26.642Z,5.70
2023-01-19T06:45:53.406Z,6.57
2023-01-19T06:48:20.716Z,7.03
2023-01-19T06:50:48.180Z,5.97
2023-01-19T06:53:16.837Z,6.07
2023-01-19T06:55:44.128Z,6.63
2023-01-19T06:58:11.598Z,6.78
2023-01-19T07:00:38.743Z,6.25
2023-01-19T07:03:09.334Z,6.30
2023-01-19T07:05:36.624Z,6.30
2023-01-19T07:08:03.862Z,6.03
2023-01-19T07:11:25.536Z,5.95
2023-01-19T07:13:17.235Z,6.13
2023-01-19T07:15:45.804Z,6.15
2023-01-19T07:18:12.442Z,6.43
2023-01-19T07:20:39.056Z,5.40
2023-01-19T07:23:05.725Z,5.88
2023-01-19T07:25:32.489Z,6.13
2023-01-19T07:28:02.372Z,6.30
2023-01-19T07:30:29.750Z,6.20
2023-01-19T07:32:57.952Z,5.70
2023-01-19T07:35:27.132Z,5.93
2023-01-19T07:37:53.764Z,6.00
2023-01-19T07:40:21.113Z,6.40
2023-01-19T07:42:50.559Z,6.15
2023-01-19T07:45:19.219Z,6.32
2023-01-19T07:47:48.789Z,5.85
2023-01-19T07:50:17.503Z,6.25
2023-01-19T07:52:44.656Z,5.35
2023-01-19T07:55:11.306Z,5.78
2023-01-19T07:57:37.935Z,5.65
2023-01-19T08:00:05.550Z,5.30
2023-01-19T08:02:33.973Z,5.82
2023-01-19T08:05:00.623Z,5.53
2023-01-19T08:07:27.355Z,5.72
2023-01-19T08:09:54.119Z,6.00
2023-01-19T08:12:20.699Z,5.05
2023-01-19T08:14:47.287Z,5.72
2023-01-19T08:17:14.093Z,5.95
2023-01-19T08:19:43.929Z,5.55
2023-01-19T08:22:10.610Z,5.22
2023-01-19T08:24:37.230Z,5.72
2023-01-19T08:27:03.997Z,5.30
2023-01-19T08:29:31.744Z,5.90
2023-01-19T08:32:00.057Z,5.85
2023-01-19T08:34:27.120Z,5.55
2023-01-19T08:36:54.127Z,5.60
2023-01-19T08:39:21.084Z,5.38
2023-01-19T08:41:47.698Z,4.90
2023-01-19T08:44:14.431Z,4.97
2023-01-19T08:46:41.370Z,5.82
2023-01-19T08:49:08.584Z,5.30
2023-01-19T08:51:35.372Z,5.50
2023-01-19T08:54:02.098Z,5.00
2023-01-19T08:56:28.688Z,5.40
2023-01-19T08:59:08.175Z,4.95
2023-01-19T09:01:36.903Z,4.75
2023-01-19T09:04:03.838Z,4.80
2023-01-19T09:06:30.465Z,4.25
2023-01-19T09:08:57.584Z,4.85
2023-01-19T09:11:24.288Z,4.93
2023-01-19T09:13:51.046Z,4.75
2023-01-19T09:16:17.889Z,4.63
2023-01-19T09:18:45.834Z,5.25
2023-01-19T09:21:13.713Z,4.78
2023-01-19T09:23:40.568Z,5.28
2023-01-19T09:26:07.481Z,4.72
2023-01-19T09:28:34.388Z,4.85
2023-01-19T09:31:09.613Z,4.68
2023-01-19T09:33:36.343Z,4.85
2023-01-19T09:36:03.303Z,4.60
2023-01-19T09:38:32.983Z,4.20
2023-01-19T09:41:00.863Z,4.47
2023-01-19T09:43:47.887Z,4.40
2023-01-19T09:46:25.331Z,4.15
2023-01-19T09:48:57.592Z,4.00
2023-01-19T09:51:27.046Z,3.95
2023-01-19T09:54:16.922Z,3.63
2023-01-19T09:56:46.564Z,3.63
2023-01-19T09:59:25.451Z,3.20
2023-01-19T10:02:42.048Z,4.10
2023-01-19T10:05:33.068Z,4.97
2023-01-19T10:08:27.766Z,4.85
2023-01-19T10:10:57.314Z,5.53
2023-01-19T10:13:32.593Z,4.90
2023-01-19T10:16:50.514Z,4.40
2023-01-19T10:19:39.972Z,3.92
2023-01-19T10:22:25.803Z,3.60
2023-01-19T10:25:07.342Z,4.18
2023-01-19T10:27:35.506Z,3.60
2023-01-19T10:30:02.689Z,3.58
2023-01-19T10:32:36.562Z,3.80
2023-01-19T10:35:21.859Z,3.72
2023-01-19T10:37:48.807Z,3.50
2023-01-19T10:40:39.170Z,3.33
2023-01-19T10:43:33.877Z,3.20
2023-01-19T10:46:05.065Z,3.20
2023-01-19T10:48:42.331Z,3.13
2023-01-19T10:51:10.869Z,3.28
2023-01-19T10:53:37.958Z,3.38
2023-01-19T10:56:25.990Z,3.33
2023-01-19T10:58:52.754Z,3.10
2023-01-19T11:01:24.776Z,3.08
2023-01-19T11:03:56.918Z,2.80
2023-01-19T11:06:28.103Z,2.80
2023-01-19T11:09:15.059Z,2.70
2023-01-19T11:11:49.265Z,2.80
2023-01-19T11:14:23.703Z,2.83
2023-01-19T11:16:56.501Z,2.70
2023-01-19T11:19:30.720Z,2.63
2023-01-19T11:22:21.385Z,2.90
2023-01-19T11:24:49.200Z,2.63
2023-01-19T11:27:21.501Z,2.70
2023-01-19T11:30:09.581Z,2.22
2023-01-19T11:32:37.105Z,2.50
2023-01-19T11:35:40.762Z,2.70
2023-01-19T11:38:16.855Z,2.50
2023-01-19T11:40:55.022Z,2.60
2023-01-19T11:43:39.799Z,2.83
2023-01-19T11:46:16.353Z,2.60
2023-01-19T11:48:56.536Z,2.70
2023-01-19T11:51:30.697Z,2.95
2023-01-19T11:53:57.417Z,2.53
2023-01-19T11:56:28.829Z,2.58
2023-01-19T11:58:56.269Z,2.47
2023-01-19T12:01:34.047Z,2.40
2023-01-19T12:04:26.015Z,2.30
2023-01-19T12:06:55.491Z,3.10
2023-01-19T12:09:25.984Z,2.50
2023-01-19T12:12:04.663Z,2.72
2023-01-19T12:14:50.462Z,2.60
2023-01-19T12:17:30.467Z,2.60
2023-01-19T12:20:06.246Z,2.83
2023-01-19T12:22:42.765Z,3.17
2023-01-19T12:25:49.359Z,2.90
2023-01-19T12:28:27.743Z,2.83
2023-01-19T12:30:55.337Z,2.65
2023-01-19T12:33:25.734Z,3.35
2023-01-19T12:36:09.673Z,2.85
2023-01-19T12:38:56.617Z,3.10
2023-01-19T12:41:36.310Z,3.53
2023-01-19T12:44:11.905Z,3.25
2023-01-19T12:46:54.887Z,3.55
2023-01-19T12:49:38.724Z,3.50
2023-01-19T12:52:19.953Z,3.17
2023-01-19T12:55:13.963Z,3.33
2023-01-19T12:58:21.980Z,3.95
2023-01-19T13:00:51.736Z,3.30
2023-01-19T13:03:18.313Z,3.30
2023-01-19T13:05:44.844Z,3.60
2023-01-19T13:08:12.372Z,3.05
2023-01-19T13:11:05.288Z,3.10
2023-01-19T13:13:37.674Z,3.22
2023-01-19T13:16:19.816Z,2.70
2023-01-19T13:18:55.538Z,3.03
2023-01-19T13:21:44.662Z,3.20
2023-01-19T13:24:17.694Z,3.60
2023-01-19T13:26:50.511Z,3.38
2023-01-19T13:29:34.236Z,3.28
2023-01-19T13:32:13.439Z,3.00
2023-01-19T13:34:44.750Z,3.22
2023-01-19T13:37:20.635Z,3.72
2023-01-19T13:39:50.075Z,3.67
2023-01-19T13:42:28.743Z,3.88
2023-01-19T13:45:00.051Z,3.47
2023-01-19T13:47:42.218Z,3.75
2023-01-19T13:50:21.654Z,3.58
2023-01-19T13:52:53.686Z,3.78
2023-01-19T13:55:21.157Z,4.28
2023-01-19T13:57:50.051Z,3.63
2023-01-19T14:00:45.672Z,3.85
2023-01-19T14:03:15.174Z,4.32
2023-01-19T14:05:44.302Z,3.30
2023-01-19T14:08:11.239Z,3.90
2023-01-19T14:10:59.955Z,3.85
2023-01-19T14:13:43.077Z,3.78
2023-01-19T14:16:17.162Z,3.45
2023-01-19T14:18:43.891Z,3.40
2023-01-19T14:21:13.665Z,3.72
2023-01-19T14:23:50.759Z,4.05
2023-01-19T14:26:48.613Z,4.13
2023-01-19T14:29:27.119Z,3.65
2023-01-19T14:32:45.081Z,3.05
2023-01-19T14:35:24.198Z,3.55
2023-01-19T14:37:52.076Z,3.47
2023-01-19T14:40:24.255Z,4.45
2023-01-19T14:43:02.967Z,4.05
2023-01-19T14:45:41.176Z,4.25
2023-01-19T14:48:18.175Z,3.92
2023-01-19T14:51:02.854Z,4.35
2023-01-19T14:53:38.915Z,3.20
2023-01-19T14:56:06.709Z,3.53
2023-01-19T14:58:35.566Z,3.75
2023-01-19T15:01:03.228Z,3.60
2023-01-19T15:03:43.610Z,3.30
2023-01-19T15:06:20.476Z,3.45
2023-01-19T15:08:49.865Z,3.15
2023-01-19T15:11:33.554Z,3.35
2023-01-19T15:14:01.802Z,3.40
2023-01-19T15:16:32.091Z,3.75
2023-01-19T15:19:01.022Z,3.30
2023-01-19T15:21:27.633Z,3.70
2023-01-19T15:23:55.447Z,3.95
2023-01-19T15:26:25.601Z,3.88
2023-01-19T15:28:52.701Z,4.03
2023-01-19T15:31:22.812Z,4.10
2023-01-19T15:33:49.843Z,4.53
2023-01-19T15:36:22.120Z,4.68
2023-01-19T15:38:50.830Z,4.25
2023-01-19T15:41:29.746Z,4.15
2023-01-19T15:43:56.580Z,5.15
2023-01-19T15:46:25.053Z,5.22
2023-01-19T15:48:52.975Z,4.05
2023-01-19T15:51:27.589Z,3.78
2023-01-19T15:53:55.584Z,3.75
2023-01-19T15:56:28.755Z,3.63
2023-01-19T15:58:58.413Z,3.75
2023-01-19T16:01:34.672Z,3.60
2023-01-19T16:04:04.049Z,3.90
2023-01-19T16:06:32.083Z,3.38
2023-01-19T16:09:00.934Z,3.40
2023-01-19T16:11:33.059Z,3.40
2023-01-19T16:14:00.289Z,3.80
2023-01-19T16:16:27.958Z,3.88
2023-01-19T16:18:55.629Z,3.72
2023-01-19T16:21:22.420Z,4.53
2023-01-19T16:23:49.360Z,4.68
2023-01-19T16:26:36.492Z,4.70
2023-01-19T16:29:10.710Z,4.32
2023-01-19T16:31:40.387Z,4.22
2023-01-19T16:34:08.446Z,3.95
2023-01-19T16:36:38.169Z,3.90
2023-01-19T16:39:10.472Z,3.80
2023-01-19T16:41:37.668Z,4.72
2023-01-19T16:44:04.929Z,4.25
2023-01-19T16:46:39.374Z,3.83
2023-01-19T16:49:12.230Z,3.80
2023-01-19T16:51:38.975Z,4.15
2023-01-19T16:54:06.025Z,3.90
2023-01-19T16:56:33.920Z,4.03
2023-01-19T16:59:00.606Z,3.97
2023-01-19T17:01:29.122Z,4.03
2023-01-19T17:03:56.346Z,4.05
2023-01-19T17:06:24.044Z,4.90
2023-01-19T17:08:51.997Z,5.22
2023-01-19T17:11:25.568Z,4.57
2023-01-19T17:14:02.090Z,3.88
2023-01-19T17:16:32.281Z,3.80
2023-01-19T17:19:02.416Z,3.92
2023-01-19T17:21:31.396Z,3.90
2023-01-19T17:23:59.112Z,4.30
2023-01-19T17:26:28.250Z,3.97
2023-01-19T17:29:07.159Z,4.20
2023-01-19T17:31:34.344Z,3.80
2023-01-19T17:34:01.779Z,3.92
2023-01-19T17:36:30.771Z,4.35
2023-01-19T17:39:00.132Z,3.90
2023-01-19T17:41:29.883Z,4.72
2023-01-19T17:43:57.830Z,4.93
2023-01-19T17:46:26.885Z,5.30
2023-01-19T17:49:01.615Z,4.70
2023-01-19T17:51:29.517Z,5.10
2023-01-19T17:53:56.824Z,4.95
2023-01-19T17:56:29.291Z,4.97
2023-01-19T17:58:59.381Z,5.20
2023-01-19T18:01:29.772Z,5.93
2023-01-19T18:03:57.715Z,5.25
2023-01-19T18:06:24.536Z,4.57
2023-01-19T18:08:51.230Z,4.60
2023-01-19T18:11:20.151Z,4.32
2023-01-19T18:13:49.047Z,4.18
2023-01-19T18:16:28.702Z,4.07
2023-01-19T18:18:56.518Z,4.43
2023-01-19T18:21:24.917Z,4.25
2023-01-19T18:23:51.640Z,5.07
2023-01-19T18:26:21.151Z,4.68
2023-01-19T18:28:48.644Z,5.03
2023-01-19T18:31:18.541Z,5.40
2023-01-19T18:33:47.013Z,5.72
2023-01-19T18:36:14.950Z,5.72
2023-01-19T18:38:41.887Z,6.22
2023-01-19T18:41:15.439Z,6.57
2023-01-19T18:43:42.933Z,6.60
2023-01-19T18:46:10.661Z,7.68
2023-01-19T18:48:39.251Z,7.22
2023-01-19T18:51:11.849Z,10.07
2023-01-19T18:53:38.835Z,14.05
2023-01-19T18:56:06.984Z,7.13
2023-01-19T18:58:36.966Z,6.70
2023-01-19T19:01:04.056Z,5.85
2023-01-19T19:03:31.215Z,5.72
2023-01-19T19:06:03.350Z,5.32
2023-01-19T19:08:33.655Z,5.07
2023-01-19T19:11:02.411Z,5.32
2023-01-19T19:13:28.976Z,5.63
2023-01-19T19:16:06.714Z,5.32
2023-01-19T19:18:35.551Z,6.05
2023-01-19T19:21:10.943Z,4.88
2023-01-19T19:23:40.007Z,4.30
2023-01-19T19:26:10.318Z,4.22
2023-01-19T19:28:38.786Z,4.78
2023-01-19T19:31:16.647Z,4.18
2023-01-19T19:33:43.477Z,3.95
2023-01-19T19:36:11.699Z,5.40
2023-01-19T19:38:40.840Z,4.60
2023-01-19T19:41:11.735Z,3.83
2023-01-19T19:43:39.458Z,4.25
2023-01-19T19:46:11.851Z,3.92
2023-01-19T19:48:39.614Z,3.50
2023-01-19T19:51:22.596Z,3.65
2023-01-19T19:53:51.764Z,3.53
2023-01-19T19:56:21.698Z,2.92
2023-01-19T19:58:50.118Z,3.47
2023-01-19T20:01:21.071Z,3.20
2023-01-19T20:03:48.874Z,3.72
2023-01-19T20:06:22.024Z,3.50
2023-01-19T20:08:50.569Z,3.28
2023-01-19T20:11:27.405Z,3.30
2023-01-19T20:13:54.838Z,3.92
2023-01-19T20:16:23.037Z,3.67
2023-01-19T20:18:53.917Z,4.00
2023-01-19T20:21:32.543Z,3.63
2023-01-19T20:24:05.969Z,3.28
2023-01-19T20:26:35.968Z,3.35
2023-01-19T20:29:06.690Z,3.50
2023-01-19T20:31:36.995Z,3.42
2023-01-19T20:34:07.765Z,3.42
2023-01-19T20:36:35.238Z,4.45
2023-01-19T20:39:08.279Z,4.57
2023-01-19T20:41:43.026Z,4.07
2023-01-19T20:44:11.892Z,4.75
2023-01-19T20:46:38.696Z,4.22
2023-01-19T20:49:06.248Z,4.78
2023-01-19T20:51:34.849Z,6.28
2023-01-19T20:54:01.513Z,6.07
2023-01-19T20:56:28.086Z,6.15
2023-01-19T20:58:54.717Z,6.90
2023-01-19T21:01:24.992Z,5.60
2023-01-19T21:03:52.201Z,4.78
2023-01-19T21:06:20.982Z,4.32
2023-01-19T21:08:51.458Z,4.70
2023-01-19T21:11:20.878Z,4.25
2023-01-19T21:13:49.003Z,4.97
2023-01-19T21:16:15.946Z,5.15
2023-01-19T21:18:42.898Z,5.32
2023-01-19T21:21:20.895Z,4.57
2023-01-19T21:24:02.727Z,5.20
2023-01-19T21:26:30.828Z,4.63
2023-01-19T21:28:58.738Z,5.10
2023-01-19T21:31:27.529Z,5.00
2023-01-19T21:33:54.613Z,4.55
2023-01-19T21:36:22.397Z,4.82
2023-01-19T21:38:51.227Z,4.63
2023-01-19T21:41:18.548Z,4.65
2023-01-19T21:43:48.352Z,5.47
2023-01-19T21:46:21.529Z,5.32
2023-01-19T21:48:48.331Z,5.50
2023-01-19T21:51:15.820Z,5.75
2023-01-19T21:53:43.094Z,5.47
2023-01-19T21:56:10.959Z,4.97
2023-01-19T21:58:38.245Z,5.25
2023-01-19T22:01:13.490Z,4.70
2023-01-19T22:03:42.022Z,4.80
2023-01-19T22:06:14.604Z,4.47
2023-01-19T22:08:41.794Z,4.40
2023-01-19T22:11:12.684Z,4.38
2023-01-19T22:13:42.869Z,3.83
2023-01-19T22:16:13.219Z,4.07
2023-01-19T22:18:43.661Z,3.42
2023-01-19T22:21:26.057Z,3.85
2023-01-19T22:23:55.961Z,3.55
2023-01-19T22:26:23.349Z,3.97
2023-01-19T22:28:54.891Z,3.80
2023-01-19T22:31:22.296Z,3.83
2023-01-19T22:33:49.996Z,3.33
2023-01-19T22:36:24.349Z,4.50
2023-01-19T22:38:59.708Z,4.40
2023-01-19T22:41:32.647Z,4.70
2023-01-19T22:44:12.798Z,4.18
2023-01-19T22:46:39.618Z,4.03
2023-01-19T22:49:07.805Z,4.10
2023-01-19T22:51:35.111Z,3.83
2023-01-19T22:54:03.931Z,3.30
2023-01-19T22:56:33.229Z,3.92
2023-01-19T22:59:00.372Z,3.38
2023-01-19T23:01:34.193Z,4.20
2023-01-19T23:04:02.417Z,3.63
2023-01-19T23:06:32.434Z,3.85
2023-01-19T23:09:01.928Z,4.78
2023-01-19T23:11:38.517Z,3.72
2023-01-19T23:14:07.316Z,3.38
2023-01-19T23:16:34.961Z,3.50
2023-01-19T23:19:01.958Z,3.30
2023-01-19T23:21:30.280Z,3.10
2023-01-19T23:24:00.723Z,2.92
2023-01-19T23:26:30.668Z,3.22
2023-01-19T23:29:00.766Z,3.17
2023-01-19T23:31:31.848Z,2.95
2023-01-19T23:34:02.070Z,2.58
2023-01-19T23:36:32.457Z,3.05
2023-01-19T23:39:03.101Z,3.53
2023-01-19T23:41:33.052Z,3.00
2023-01-19T23:44:00.117Z,3.05
2023-01-19T23:46:27.034Z,1.98
2023-01-19T23:48:53.860Z,2.67
2023-01-19T23:51:26.990Z,2.47
2023-01-19T23:53:54.335Z,2.78
2023-01-19T23:56:39.557Z,2.40
2023-01-19T23:59:10.213Z,2.33
